createdAt,value
2018-03-07T00:01:15.375Z,60.40
2018-03-07T00:03:42.974Z,55.90
2018-03-07T00:06:10.549Z,64.90
2018-03-07T00:08:38.116Z,61.73
2018-03-07T00:11:05.862Z,56.13
2018-03-07T00:13:33.424Z,59.60
2018-03-07T00:16:00.978Z,57.37
2018-03-07T00:18:28.583Z,59.50
2018-03-07T00:20:56.160Z,58.70
2018-03-07T00:23:23.730Z,55.40
2018-03-07T00:25:51.371Z,57.37
2018-03-07T00:28:18.940Z,59.60
2018-03-07T00:30:46.508Z,56.30
2018-03-07T00:33:14.122Z,58.17
2018-03-07T00:35:41.678Z,58.53
2018-03-07T00:38:09.260Z,59.43
2018-03-07T00:40:36.862Z,56.60
2018-03-07T00:43:04.422Z,53.17
2018-03-07T00:45:31.981Z,57.73
2018-03-07T00:47:59.712Z,58.27
2018-03-07T00:50:27.284Z,57.93
2018-03-07T00:52:54.860Z,62.67
2018-03-07T00:55:22.463Z,96.40
2018-03-07T00:57:50.025Z,63.73
2018-03-07T01:00:17.642Z,57.60
2018-03-07T01:02:45.251Z,55.17
2018-03-07T01:05:12.816Z,54.83
2018-03-07T01:07:40.378Z,45.30
2018-03-07T01:10:07.955Z,38.70
2018-03-07T01:12:35.505Z,39.67
2018-03-07T01:15:03.059Z,33.73
2018-03-07T01:17:30.643Z,30.47
2018-03-07T01:19:58.200Z,29.33
2018-03-07T01:22:25.758Z,28.97
2018-03-07T01:24:53.354Z,28.40
2018-03-07T01:27:20.970Z,24.50
2018-03-07T01:29:48.535Z,26.63
2018-03-07T01:32:16.277Z,23.67
2018-03-07T01:34:43.844Z,24.73
2018-03-07T01:37:11.418Z,25.77
2018-03-07T01:39:39.018Z,26.10
2018-03-07T01:42:06.731Z,24.57
2018-03-07T01:44:34.289Z,24.50
2018-03-07T01:47:01.922Z,21.60
2018-03-07T01:49:29.480Z,25.57
2018-03-07T01:52:02.084Z,31.70
2018-03-07T01:54:29.646Z,35.37
2018-03-07T01:56:57.217Z,35.97
2018-03-07T01:59:24.830Z,38.40
2018-03-07T02:01:52.397Z,37.70
2018-03-07T02:04:19.960Z,30.13
2018-03-07T02:06:47.558Z,29.33
2018-03-07T02:09:15.114Z,33.10
2018-03-07T02:11:42.663Z,35.43
2018-03-07T02:14:10.258Z,33.57
2018-03-07T02:16:37.818Z,34.30
2018-03-07T02:19:05.385Z,29.03
2018-03-07T02:21:32.989Z,33.30
2018-03-07T02:24:00.556Z,31.47
2018-03-07T02:26:28.136Z,36.30
2018-03-07T02:28:55.736Z,38.30
2018-03-07T02:31:23.318Z,39.03
2018-03-07T02:33:50.878Z,39.47
2018-03-07T02:36:30.091Z,41.22
2018-03-07T02:38:57.662Z,33.47
2018-03-07T02:41:25.234Z,30.13
2018-03-07T02:43:52.831Z,31.80
2018-03-07T02:46:20.392Z,34.60
2018-03-07T02:48:47.946Z,33.57
2018-03-07T02:51:15.599Z,33.77
2018-03-07T02:53:43.163Z,32.97
2018-03-07T02:56:10.731Z,32.87
2018-03-07T02:58:38.332Z,32.23
2018-03-07T03:01:05.901Z,33.07
2018-03-07T03:03:33.465Z,30.20
2018-03-07T03:06:01.081Z,33.40
2018-03-07T03:08:28.646Z,30.87
2018-03-07T03:10:56.207Z,35.27
2018-03-07T03:13:23.815Z,34.73
2018-03-07T03:15:51.377Z,35.47
2018-03-07T03:18:18.944Z,37.20
2018-03-07T03:20:46.567Z,37.20
2018-03-07T03:23:14.126Z,35.30
2018-03-07T03:25:41.685Z,33.33
2018-03-07T03:28:09.287Z,36.43
2018-03-07T03:30:36.860Z,34.70
2018-03-07T03:33:04.430Z,39.27
2018-03-07T03:35:32.033Z,38.37
2018-03-07T03:37:59.632Z,42.90
2018-03-07T03:40:27.192Z,40.17
2018-03-07T03:42:54.797Z,37.50
2018-03-07T03:45:22.357Z,37.40
2018-03-07T03:47:49.920Z,40.70
2018-03-07T03:50:17.524Z,44.47
2018-03-07T03:52:45.126Z,58.80
2018-03-07T03:55:12.695Z,46.90
2018-03-07T03:57:40.302Z,42.20
2018-03-07T04:00:07.862Z,51.43
2018-03-07T04:02:35.429Z,50.10
2018-03-07T04:05:03.026Z,56.63
2018-03-07T04:07:30.606Z,44.83
2018-03-07T04:09:58.183Z,39.70
2018-03-07T04:12:25.810Z,40.07
2018-03-07T04:14:53.375Z,40.33
2018-03-07T04:17:20.939Z,40.83
2018-03-07T04:19:48.534Z,39.87
2018-03-07T04:22:16.103Z,40.70
2018-03-07T04:24:43.678Z,39.60
2018-03-07T04:27:11.301Z,39.70
2018-03-07T04:29:38.996Z,39.43
2018-03-07T04:32:06.567Z,39.57
2018-03-07T04:34:34.175Z,36.10
2018-03-07T04:37:01.743Z,37.07
2018-03-07T04:39:29.309Z,40.67
2018-03-07T04:41:56.914Z,36.23
2018-03-07T04:44:24.484Z,43.83
2018-03-07T04:46:52.048Z,43.20
2018-03-07T04:49:19.656Z,42.53
2018-03-07T04:51:47.232Z,41.57
2018-03-07T04:54:14.802Z,41.83
2018-03-07T04:56:42.412Z,44.13
2018-03-07T04:59:09.981Z,47.60
2018-03-07T05:01:37.598Z,43.40
2018-03-07T05:04:05.197Z,43.33
2018-03-07T05:06:32.762Z,43.37
2018-03-07T05:09:00.342Z,43.40
2018-03-07T05:11:27.956Z,39.83
2018-03-07T05:13:55.514Z,35.23
2018-03-07T05:16:23.070Z,31.43
2018-03-07T05:18:50.683Z,35.50
2018-03-07T05:21:18.247Z,36.30
2018-03-07T05:23:45.820Z,33.83
2018-03-07T05:26:13.429Z,32.50
2018-03-07T05:28:40.998Z,31.60
2018-03-07T05:31:08.568Z,32.50
2018-03-07T05:33:36.180Z,31.93
2018-03-07T05:36:03.754Z,33.57
2018-03-07T05:38:31.377Z,32.43
2018-03-07T05:40:58.976Z,36.75
2018-03-07T05:43:26.537Z,34.40
2018-03-07T05:45:54.277Z,34.00
2018-03-07T05:48:21.886Z,36.83
2018-03-07T05:50:49.448Z,33.80
2018-03-07T05:53:17.095Z,32.77
2018-03-07T05:55:44.714Z,31.13
2018-03-07T05:58:12.298Z,30.80
2018-03-07T06:00:39.863Z,28.10
2018-03-07T06:03:07.478Z,31.40
2018-03-07T06:05:35.092Z,28.90
2018-03-07T06:08:02.711Z,28.00
2018-03-07T06:10:30.321Z,30.27
2018-03-07T06:12:57.907Z,39.03
2018-03-07T06:15:25.477Z,33.40
2018-03-07T06:17:53.087Z,34.60
2018-03-07T06:20:20.654Z,45.30
2018-03-07T06:22:48.231Z,37.93
2018-03-07T06:25:15.842Z,41.13
2018-03-07T06:27:43.420Z,43.57
2018-03-07T06:30:11.048Z,43.17
2018-03-07T06:32:38.654Z,45.80
2018-03-07T06:35:06.223Z,42.47
2018-03-07T06:37:33.795Z,40.47
2018-03-07T06:40:01.410Z,35.63
2018-03-07T06:42:28.992Z,41.90
2018-03-07T06:44:56.554Z,48.27
2018-03-07T06:47:24.174Z,45.07
2018-03-07T06:49:51.748Z,42.00
2018-03-07T06:52:19.311Z,39.03
2018-03-07T06:54:46.952Z,37.47
2018-03-07T06:57:14.523Z,35.30
2018-03-07T06:59:42.091Z,30.67
2018-03-07T07:02:09.698Z,31.97
2018-03-07T07:04:37.260Z,29.70
2018-03-07T07:07:04.832Z,30.70
2018-03-07T07:09:32.440Z,31.30
2018-03-07T07:12:00.041Z,28.10
2018-03-07T07:14:27.611Z,29.20
2018-03-07T07:16:55.231Z,26.07
2018-03-07T07:19:22.807Z,25.47
2018-03-07T07:21:50.390Z,24.60
2018-03-07T07:24:18.011Z,30.23
2018-03-07T07:26:45.819Z,28.17
2018-03-07T07:29:13.439Z,30.10
2018-03-07T07:31:41.048Z,27.73
2018-03-07T07:34:08.610Z,30.97
2018-03-07T07:36:36.180Z,30.77
2018-03-07T07:39:03.886Z,34.00
2018-03-07T07:41:31.580Z,45.17
2018-03-07T07:43:59.210Z,53.97
2018-03-07T07:46:26.824Z,55.50
2018-03-07T07:48:54.433Z,54.20
2018-03-07T07:51:22.035Z,48.83
2018-03-07T07:53:49.837Z,49.60
2018-03-07T07:56:17.402Z,48.37
2018-03-07T07:58:45.180Z,48.83
2018-03-07T08:01:12.787Z,44.47
2018-03-07T08:03:40.355Z,48.60
2018-03-07T08:06:07.975Z,48.53
2018-03-07T08:08:35.588Z,40.67
2018-03-07T08:11:03.293Z,45.10
2018-03-07T08:13:30.869Z,34.90
2018-03-07T08:15:58.484Z,41.97
2018-03-07T08:18:26.061Z,34.60
2018-03-07T08:20:53.620Z,32.73
2018-03-07T08:23:21.291Z,27.00
2018-03-07T08:25:48.850Z,19.63
2018-03-07T08:28:16.406Z,12.70
2018-03-07T08:30:43.986Z,14.53
2018-03-07T08:33:11.531Z,6.07
2018-03-07T08:35:39.132Z,5.13
2018-03-07T08:38:07.173Z,5.47
2018-03-07T08:40:34.733Z,3.07
2018-03-07T08:43:02.290Z,4.30
2018-03-07T08:45:29.907Z,3.70
2018-03-07T08:47:57.465Z,4.40
2018-03-07T08:50:25.024Z,4.90
2018-03-07T08:52:52.651Z,4.17
2018-03-07T08:55:20.218Z,4.17
2018-03-07T08:57:47.847Z,3.97
2018-03-07T09:00:15.430Z,4.30
2018-03-07T09:02:43.003Z,4.20
2018-03-07T09:05:10.562Z,3.73
2018-03-07T09:07:38.173Z,4.00
2018-03-07T09:10:05.747Z,4.73
2018-03-07T09:12:33.310Z,6.50
2018-03-07T09:15:00.908Z,5.30
2018-03-07T09:17:28.475Z,6.60
2018-03-07T09:19:56.034Z,4.97
2018-03-07T09:22:23.649Z,4.30
2018-03-07T09:24:51.204Z,3.73
2018-03-07T09:27:18.951Z,4.57
2018-03-07T09:29:46.563Z,4.40
2018-03-07T09:32:14.299Z,5.03
2018-03-07T09:34:41.857Z,4.27
2018-03-07T09:37:09.456Z,4.03
2018-03-07T09:39:37.011Z,5.37
2018-03-07T09:42:04.561Z,4.83
2018-03-07T09:44:32.164Z,4.27
2018-03-07T09:46:59.715Z,5.10
2018-03-07T09:49:27.282Z,4.37
2018-03-07T09:51:54.878Z,4.93
2018-03-07T09:54:22.476Z,4.47
2018-03-07T09:56:50.028Z,4.57
2018-03-07T09:59:17.625Z,4.03
2018-03-07T10:01:45.178Z,4.50
2018-03-07T10:04:12.727Z,4.30
2018-03-07T10:06:40.332Z,3.47
2018-03-07T10:09:07.899Z,3.13
2018-03-07T10:11:35.464Z,4.50
2018-03-07T10:14:03.059Z,4.07
2018-03-07T10:16:30.646Z,3.87
2018-03-07T10:18:58.210Z,4.37
2018-03-07T10:21:25.800Z,5.43
2018-03-07T10:23:53.365Z,5.30
2018-03-07T10:26:20.909Z,3.77
2018-03-07T10:28:48.496Z,3.90
2018-03-07T10:31:16.039Z,6.20
2018-03-07T10:33:43.578Z,2.73
2018-03-07T10:36:11.200Z,3.50
2018-03-07T10:38:38.755Z,3.40
2018-03-07T10:41:06.308Z,3.53
2018-03-07T10:43:33.914Z,3.40
2018-03-07T10:46:01.690Z,4.53
2018-03-07T10:48:29.307Z,3.50
2018-03-07T10:50:56.928Z,4.20
2018-03-07T10:53:24.488Z,5.23
2018-03-07T10:55:52.129Z,4.97
2018-03-07T10:58:19.953Z,4.97
2018-03-07T11:00:47.519Z,4.27
2018-03-07T11:03:15.136Z,6.50
2018-03-07T11:05:42.742Z,5.13
2018-03-07T11:08:10.306Z,6.33
2018-03-07T11:10:37.870Z,5.60
2018-03-07T11:13:05.473Z,7.13
2018-03-07T11:15:33.032Z,6.00
2018-03-07T11:18:00.584Z,5.87
2018-03-07T11:20:28.167Z,4.70
2018-03-07T11:22:55.719Z,5.87
2018-03-07T11:25:23.278Z,4.13
2018-03-07T11:27:50.920Z,4.97
2018-03-07T11:30:18.462Z,4.27
2018-03-07T11:32:46.020Z,4.33
2018-03-07T11:35:13.614Z,4.50
2018-03-07T11:37:41.182Z,4.50
2018-03-07T11:40:08.741Z,5.70
2018-03-07T11:42:36.323Z,3.63
2018-03-07T11:45:03.925Z,5.93
2018-03-07T11:47:31.436Z,4.27
2018-03-07T11:49:59.021Z,4.87
2018-03-07T11:52:26.568Z,6.77
2018-03-07T11:54:54.217Z,6.30
2018-03-07T11:57:21.819Z,5.93
2018-03-07T11:59:49.374Z,5.67
2018-03-07T12:02:16.920Z,5.93
2018-03-07T12:04:44.518Z,5.40
2018-03-07T12:07:12.069Z,4.33
2018-03-07T12:09:39.663Z,4.60
2018-03-07T12:12:07.264Z,5.20
2018-03-07T12:14:34.824Z,10.77
2018-03-07T12:17:02.547Z,5.57
2018-03-07T12:19:30.141Z,6.13
2018-03-07T12:21:57.703Z,4.20
2018-03-07T12:24:25.285Z,4.03
2018-03-07T12:26:52.863Z,5.23
2018-03-07T12:29:20.413Z,5.83
2018-03-07T12:31:47.957Z,5.63
2018-03-07T12:34:15.525Z,4.70
2018-03-07T12:36:43.070Z,8.20
2018-03-07T12:39:10.631Z,12.83
2018-03-07T12:41:38.237Z,6.97
2018-03-07T12:44:05.808Z,7.90
2018-03-07T12:46:33.363Z,6.20
2018-03-07T12:49:00.960Z,6.23
2018-03-07T12:51:28.522Z,5.80
2018-03-07T12:53:56.082Z,5.57
2018-03-07T12:56:23.892Z,6.07
2018-03-07T12:58:51.455Z,6.63
2018-03-07T13:01:19.000Z,4.60
2018-03-07T13:03:46.590Z,4.40
2018-03-07T13:06:14.336Z,6.90
2018-03-07T13:08:41.939Z,6.97
2018-03-07T13:11:09.525Z,7.80
2018-03-07T13:13:37.076Z,8.40
2018-03-07T13:16:04.631Z,8.63
2018-03-07T13:18:32.211Z,7.60
2018-03-07T13:20:59.778Z,7.73
2018-03-07T13:23:27.335Z,8.47
2018-03-07T13:25:54.960Z,8.00
2018-03-07T13:28:22.542Z,10.00
2018-03-07T13:30:50.268Z,7.60
2018-03-07T13:33:17.892Z,10.80
2018-03-07T13:35:45.478Z,11.30
2018-03-07T13:38:13.074Z,9.18
2018-03-07T13:40:40.680Z,11.30
2018-03-07T13:43:08.250Z,10.07
2018-03-07T13:45:35.825Z,9.10
2018-03-07T13:48:03.453Z,16.20
2018-03-07T13:50:31.108Z,10.40
2018-03-07T13:52:58.648Z,9.93
2018-03-07T13:55:26.270Z,10.83
2018-03-07T13:57:53.921Z,22.17
2018-03-07T14:00:21.501Z,18.90
2018-03-07T14:02:49.080Z,15.43
2018-03-07T14:05:16.688Z,9.90
2018-03-07T14:07:44.292Z,9.67
2018-03-07T14:10:11.928Z,8.57
2018-03-07T14:12:39.640Z,10.60
2018-03-07T14:15:07.224Z,10.37
2018-03-07T14:17:34.784Z,8.77
2018-03-07T14:20:02.398Z,9.70
2018-03-07T14:22:29.965Z,14.77
2018-03-07T14:24:57.527Z,10.53
2018-03-07T14:27:25.155Z,17.97
2018-03-07T14:29:52.713Z,20.33
2018-03-07T14:32:20.288Z,15.37
2018-03-07T14:34:47.939Z,20.90
2018-03-07T14:37:15.537Z,15.70
2018-03-07T14:39:43.186Z,18.37
2018-03-07T14:42:10.752Z,15.60
2018-03-07T14:44:38.361Z,16.00
2018-03-07T14:47:05.925Z,19.03
2018-03-07T14:49:33.493Z,16.10
2018-03-07T14:52:01.091Z,14.87
2018-03-07T14:54:28.662Z,17.50
2018-03-07T14:56:56.226Z,13.57
2018-03-07T14:59:23.823Z,21.70
2018-03-07T15:01:51.412Z,23.13
2018-03-07T15:04:19.015Z,23.20
2018-03-07T15:06:46.636Z,21.17
2018-03-07T15:09:14.206Z,42.83
2018-03-07T15:11:41.768Z,22.83
2018-03-07T15:14:09.390Z,15.43
2018-03-07T15:16:36.977Z,12.30
2018-03-07T15:19:04.544Z,11.07
2018-03-07T15:21:32.144Z,7.70
2018-03-07T15:23:59.723Z,17.97
2018-03-07T15:26:27.360Z,18.87
2018-03-07T15:28:55.391Z,27.63
2018-03-07T15:31:23.030Z,27.87
2018-03-07T15:33:50.624Z,26.00
2018-03-07T15:36:18.237Z,21.93
2018-03-07T15:38:46.450Z,23.80
2018-03-07T15:41:14.144Z,15.27
2018-03-07T15:43:42.069Z,12.50
2018-03-07T15:46:10.216Z,14.10
2018-03-07T15:48:40.132Z,39.27
2018-03-07T15:51:11.620Z,23.47
2018-03-07T15:53:41.980Z,34.77
2018-03-07T15:56:09.929Z,22.73
2018-03-07T15:58:38.149Z,17.10
2018-03-07T16:01:06.216Z,18.47
2018-03-07T16:03:34.295Z,17.23
2018-03-07T16:06:01.989Z,17.00
2018-03-07T16:08:29.568Z,28.50
2018-03-07T16:10:57.148Z,21.10
2018-03-07T16:13:24.765Z,27.13
2018-03-07T16:15:52.342Z,20.17
2018-03-07T16:18:19.926Z,14.97
2018-03-07T16:20:47.544Z,15.13
2018-03-07T16:23:15.373Z,16.83
2018-03-07T16:25:42.973Z,14.60
2018-03-07T16:28:10.585Z,19.10
2018-03-07T16:30:38.162Z,15.60
2018-03-07T16:33:05.741Z,19.00
2018-03-07T16:35:33.408Z,19.80
2018-03-07T16:38:00.975Z,19.30
2018-03-07T16:40:28.555Z,69.77
2018-03-07T16:42:56.184Z,61.10
2018-03-07T16:45:23.768Z,26.97
2018-03-07T16:47:51.343Z,21.73
2018-03-07T16:50:18.942Z,17.27
2018-03-07T16:52:46.513Z,17.77
2018-03-07T16:55:14.094Z,24.03
2018-03-07T16:57:41.724Z,93.20
2018-03-07T17:00:09.328Z,100.63
2018-03-07T17:02:36.908Z,60.23
2018-03-07T17:05:04.585Z,41.70
2018-03-07T17:07:32.159Z,75.00
2018-03-07T17:10:00.281Z,38.90
2018-03-07T17:12:27.956Z,51.00
2018-03-07T17:14:55.533Z,67.33
2018-03-07T17:17:23.092Z,52.43
2018-03-07T17:19:50.704Z,44.90
2018-03-07T17:22:18.284Z,58.07
2018-03-07T17:24:45.855Z,29.13
2018-03-07T17:27:13.460Z,29.70
2018-03-07T17:29:41.031Z,30.27
2018-03-07T17:32:08.660Z,30.20
2018-03-07T17:34:36.329Z,21.43
2018-03-07T17:37:03.883Z,20.30
2018-03-07T17:39:31.448Z,20.03
2018-03-07T17:41:59.049Z,28.93
2018-03-07T17:44:26.677Z,27.80
2018-03-07T17:46:54.363Z,31.63
2018-03-07T17:49:22.354Z,29.17
2018-03-07T17:51:49.951Z,23.17
2018-03-07T17:54:17.610Z,22.37
2018-03-07T17:56:45.170Z,24.00
2018-03-07T17:59:12.784Z,21.73
2018-03-07T18:01:40.532Z,22.47
2018-03-07T18:04:08.642Z,25.90
2018-03-07T18:06:36.562Z,27.00
2018-03-07T18:09:04.299Z,22.63
2018-03-07T18:11:31.906Z,21.00
2018-03-07T18:13:59.576Z,27.67
2018-03-07T18:16:27.456Z,28.40
2018-03-07T18:18:55.262Z,43.57
2018-03-07T18:21:22.826Z,30.00
2018-03-07T18:23:50.443Z,33.30
2018-03-07T18:26:18.223Z,30.13
2018-03-07T18:28:45.800Z,24.50
2018-03-07T18:31:13.629Z,20.27
2018-03-07T18:33:41.938Z,15.03
2018-03-07T18:36:09.806Z,15.87
2018-03-07T18:38:37.846Z,12.80
2018-03-07T18:41:06.487Z,92.90
2018-03-07T18:43:34.660Z,17.00
2018-03-07T18:46:02.782Z,7.30
2018-03-07T18:48:30.796Z,8.20
2018-03-07T18:50:59.664Z,33.97
2018-03-07T18:53:28.235Z,88.63
2018-03-07T18:55:56.523Z,9.07
2018-03-07T18:58:24.855Z,13.10
2018-03-07T19:00:53.964Z,14.50
2018-03-07T19:03:21.867Z,14.90
2018-03-07T19:05:49.545Z,19.57
2018-03-07T19:08:17.427Z,32.87
2018-03-07T19:10:45.065Z,42.83
2018-03-07T19:13:13.569Z,25.90
2018-03-07T19:15:41.652Z,22.23
2018-03-07T19:18:09.800Z,17.70
2018-03-07T19:20:37.654Z,16.23
2018-03-07T19:23:06.127Z,17.80
2018-03-07T19:25:35.151Z,21.20
2018-03-07T19:28:03.428Z,22.27
2018-03-07T19:30:31.397Z,23.17
2018-03-07T19:32:59.206Z,26.80
2018-03-07T19:35:26.758Z,40.73
2018-03-07T19:37:54.372Z,210.03
2018-03-07T19:40:21.962Z,108.77
2018-03-07T19:42:49.606Z,39.70
2018-03-07T19:45:17.186Z,56.60
2018-03-07T19:47:44.784Z,51.07
2018-03-07T19:50:12.365Z,46.53
2018-03-07T19:52:40.015Z,35.57
2018-03-07T19:55:07.574Z,37.77
2018-03-07T19:57:35.162Z,56.20
2018-03-07T20:00:03.354Z,66.90
2018-03-07T20:02:31.029Z,64.97
2018-03-07T20:04:58.956Z,39.60
2018-03-07T20:07:26.662Z,51.70
2018-03-07T20:09:54.600Z,48.33
2018-03-07T20:12:23.234Z,43.10
2018-03-07T20:14:51.013Z,38.00
2018-03-07T20:17:18.623Z,38.60
2018-03-07T20:19:46.207Z,39.00
2018-03-07T20:22:13.777Z,36.10
2018-03-07T20:24:41.415Z,36.67
2018-03-07T20:27:09.003Z,32.87
2018-03-07T20:29:36.574Z,32.13
2018-03-07T20:32:04.214Z,40.27
2018-03-07T20:34:31.791Z,33.70
2018-03-07T20:36:59.356Z,31.53
2018-03-07T20:39:26.985Z,39.67
2018-03-07T20:41:55.520Z,45.27
2018-03-07T20:44:23.087Z,38.83
2018-03-07T20:46:50.689Z,38.07
2018-03-07T20:49:18.293Z,41.77
2018-03-07T20:51:45.867Z,40.17
2018-03-07T20:54:13.478Z,42.90
2018-03-07T20:56:41.044Z,43.23
2018-03-07T20:59:09.529Z,39.30
2018-03-07T21:01:37.136Z,37.13
2018-03-07T21:04:04.701Z,35.07
2018-03-07T21:06:32.260Z,33.30
2018-03-07T21:08:59.994Z,38.50
2018-03-07T21:11:27.536Z,34.57
2018-03-07T21:13:55.135Z,34.87
2018-03-07T21:16:22.799Z,34.83
2018-03-07T21:18:50.362Z,31.40
2018-03-07T21:21:18.333Z,46.70
2018-03-07T21:23:45.937Z,34.77
2018-03-07T21:26:13.497Z,29.73
2018-03-07T21:28:41.085Z,24.53
2018-03-07T21:31:08.696Z,25.03
2018-03-07T21:33:36.332Z,30.13
2018-03-07T21:36:03.910Z,33.40
2018-03-07T21:38:31.521Z,30.67
2018-03-07T21:40:59.101Z,30.67
2018-03-07T21:43:26.685Z,24.43
2018-03-07T21:45:54.304Z,34.33
2018-03-07T21:48:21.863Z,44.50
2018-03-07T21:50:49.410Z,43.37
2018-03-07T21:53:17.023Z,47.00
2018-03-07T21:55:44.599Z,37.03
2018-03-07T21:58:12.144Z,32.20
2018-03-07T22:00:39.749Z,28.67
2018-03-07T22:03:07.310Z,28.30
2018-03-07T22:05:34.867Z,30.27
2018-03-07T22:08:02.467Z,52.83
2018-03-07T22:10:30.026Z,31.30
2018-03-07T22:12:57.581Z,42.40
2018-03-07T22:15:25.186Z,52.50
2018-03-07T22:17:52.731Z,37.53
2018-03-07T22:20:20.298Z,40.70
2018-03-07T22:22:47.886Z,40.30
2018-03-07T22:25:15.435Z,36.73
2018-03-07T22:27:43.005Z,33.50
2018-03-07T22:30:10.622Z,35.50
2018-03-07T22:32:38.196Z,30.47
2018-03-07T22:35:05.762Z,28.67
2018-03-07T22:37:33.564Z,29.83
2018-03-07T22:40:01.111Z,25.07
2018-03-07T22:42:28.931Z,25.48
2018-03-07T22:44:56.608Z,19.87
2018-03-07T22:47:24.168Z,23.93
2018-03-07T22:49:51.733Z,26.43
2018-03-07T22:52:19.346Z,30.40
2018-03-07T22:54:46.937Z,30.40
2018-03-07T22:57:14.524Z,25.00
2018-03-07T22:59:42.157Z,25.10
2018-03-07T23:02:09.744Z,29.00
2018-03-07T23:04:37.301Z,30.70
2018-03-07T23:07:04.970Z,33.73
2018-03-07T23:09:32.526Z,28.77
2018-03-07T23:12:00.116Z,27.97
2018-03-07T23:14:27.750Z,31.17
2018-03-07T23:16:55.371Z,38.00
2018-03-07T23:19:22.943Z,31.23
2018-03-07T23:21:50.547Z,31.50
2018-03-07T23:24:18.115Z,38.03
2018-03-07T23:26:45.689Z,36.80
2018-03-07T23:29:13.308Z,37.03
2018-03-07T23:31:40.890Z,33.60
2018-03-07T23:34:08.475Z,34.60
2018-03-07T23:36:36.087Z,34.80
2018-03-07T23:39:03.704Z,35.27
2018-03-07T23:41:31.266Z,31.20
2018-03-07T23:43:58.888Z,46.23
2018-03-07T23:46:26.476Z,37.37
2018-03-07T23:48:54.047Z,29.63
2018-03-07T23:51:21.648Z,29.97
2018-03-07T23:53:49.208Z,28.77
2018-03-07T23:56:16.770Z,33.60
2018-03-07T23:58:44.380Z,30.10
